Time;durP1;ratioP1;P1;durP2;ratioP2;P2;SDS_P1;SDS_P2;PMS_P1;PMS_P2;Temp;Humidity;BMP_temperature;BMP_pressure;BME280_temperature;BME280_humidity;BME280_pressure;Samples;Min_cycle;Max_cycle;Signal;HPM_P1;HPM_P2
2021/10/02 00:34:18;;;;;;;5.63;3.00;;;;;;;;;;5094115;28;20073;-81
2021/10/02 00:44:37;;;;;;;5.20;2.92;;;;;;;;;;5092602;28;20894;-81
2021/10/02 00:44:43;;;;;;;9.73;3.17;;;;;;;;;;5101730;28;20023;-82
2021/10/02 00:47:09;;;;;;;5.45;3.13;;;;;;;;;;5100672;28;20020;-81
2021/10/02 00:49:35;;;;;;;5.40;3.33;;;;;;;;;;5092555;28;20379;-81
2021/10/02 00:52:01;;;;;;;4.95;3.55;;;;;;;;;;5092255;28;20012;-81
2021/10/02 00:54:26;;;;;;;6.80;3.38;;;;;;;;;;5074286;28;20035;-81
2021/10/02 00:56:51;;;;;;;7.03;3.42;;;;;;;;;;5094172;28;20114;-81
2021/10/02 00:59:17;;;;;;;7.18;3.88;;;;;;;;;;5077749;28;20055;-82
2021/10/02 01:01:54;;;;;;;5.55;3.17;;;;;;;;;;5096054;28;20477;-81
2021/10/02 01:04:24;;;;;;;7.55;3.13;;;;;;;;;;5077681;28;20427;-81
2021/10/02 01:06:59;;;;;;;8.07;3.50;;;;;;;;;;5080365;28;20062;-81
2021/10/02 01:09:30;;;;;;;14.23;3.35;;;;;;;;;;5078327;28;20016;-81
2021/10/02 01:12:02;;;;;;;6.05;3.13;;;;;;;;;;5078716;28;20046;-81
2021/10/02 01:14:27;;;;;;;;;;;;;;;;;;5077678;28;20386;-81
2021/10/02 01:17:00;;;;;;;5.68;2.97;;;;;;;;;;5119007;27;20386;-81
2021/10/02 01:19:44;;;;;;;7.35;3.30;;;;;;;;;;5081000;28;20256;-81
2021/10/02 01:22:13;;;;;;;5.80;3.22;;;;;;;;;;5077452;28;20031;-81
2021/10/02 01:24:38;;;;;;;5.43;3.05;;;;;;;;;;5109287;28;20058;-81
2021/10/02 01:27:22;;;;;;;6.47;3.03;;;;;;;;;;5077575;28;20051;-81
2021/10/02 01:29:48;;;;;;;6.40;3.53;;;;;;;;;;5076995;28;20122;-81
2021/10/02 01:32:21;;;;;;;6.93;3.40;;;;;;;;;;5077385;28;20019;-81
2021/10/02 01:48:15;;;;;;;6.43;3.30;;;;;;;;;;5094922;28;20698;-81
2021/10/02 01:50:43;;;;;;;9.82;3.40;;;;;;;;;;5076992;28;20018;-81
2021/10/02 01:53:09;;;;;;;8.88;3.70;;;;;;;;;;5077036;28;20550;-82
2021/10/02 01:55:35;;;;;;;6.03;3.40;;;;;;;;;;5076952;28;20012;-81
2021/10/02 01:58:01;;;;;;;6.78;3.67;;;;;;;;;;5080499;28;20039;-82
2021/10/02 02:00:27;;;;;;;6.80;3.75;;;;;;;;;;5078431;28;20099;-81
2021/10/02 02:02:55;;;;;;;7.13;3.90;;;;;;;;;;5076834;28;20012;-81
2021/10/02 02:05:21;;;;;;;5.70;3.30;;;;;;;;;;5076576;28;20019;-81
2021/10/02 02:07:52;;;;;;;6.68;3.10;;;;;;;;;;5075671;28;20012;-81
2021/10/02 02:10:18;;;;;;;5.40;3.35;;;;;;;;;;5076380;28;20510;-81
2021/10/02 02:12:44;;;;;;;6.22;3.85;;;;;;;;;;5080869;28;20011;-81
2021/10/02 02:15:11;;;;;;;6.80;3.80;;;;;;;;;;5083388;28;20481;-82
2021/10/02 02:17:37;;;;;;;5.43;3.60;;;;;;;;;;5094636;28;20023;-81
2021/10/02 02:20:04;;;;;;;9.55;3.20;;;;;;;;;;5077455;28;20020;-81
2021/10/02 02:22:29;;;;;;;7.15;3.70;;;;;;;;;;5094312;28;20039;-81
2021/10/02 02:24:54;;;;;;;6.32;3.63;;;;;;;;;;5094034;28;20012;-81
2021/10/02 02:27:20;;;;;;;9.93;4.07;;;;;;;;;;5076372;28;20485;-81
2021/10/02 02:29:46;;;;;;;6.47;3.58;;;;;;;;;;5094224;28;20154;-81
2021/10/02 02:32:12;;;;;;;8.43;3.85;;;;;;;;;;5076304;28;20459;-81
2021/10/02 02:34:37;;;;;;;10.40;4.28;;;;;;;;;;5075847;28;20016;-81
2021/10/02 02:37:02;;;;;;;12.90;4.93;;;;;;;;;;5076887;28;20643;-81
2021/10/02 02:39:27;;;;;;;11.35;3.70;;;;;;;;;;5075950;28;20449;-81
2021/10/02 02:41:53;;;;;;;8.23;3.97;;;;;;;;;;5077529;28;20016;-81
2021/10/02 02:44:19;;;;;;;8.43;4.35;;;;;;;;;;5084532;28;20023;-81
2021/10/02 02:46:49;;;;;;;8.13;4.63;;;;;;;;;;5075307;28;20016;-81
2021/10/02 02:49:18;;;;;;;6.97;4.57;;;;;;;;;;5075726;28;20020;-81
2021/10/02 02:51:46;;;;;;;10.43;4.60;;;;;;;;;;5075695;28;20621;-81
2021/10/02 02:54:21;;;;;;;6.28;4.22;;;;;;;;;;5075698;28;20077;-81
2021/10/02 02:56:49;;;;;;;7.43;4.28;;;;;;;;;;5093875;28;20585;-81
2021/10/02 02:59:20;;;;;;;7.28;4.20;;;;;;;;;;5075709;28;20076;-81
2021/10/02 03:01:46;;;;;;;8.40;4.30;;;;;;;;;;5093238;28;20024;-82
2021/10/02 03:04:13;;;;;;;7.43;4.10;;;;;;;;;;5075907;28;20119;-81
2021/10/02 03:06:42;;;;;;;8.93;4.43;;;;;;;;;;5075451;28;20027;-81
2021/10/02 03:09:08;;;;;;;6.47;4.07;;;;;;;;;;5075410;28;20418;-81
2021/10/02 03:11:33;;;;;;;10.88;3.92;;;;;;;;;;5082954;28;20106;-81
2021/10/02 03:13:59;;;;;;;8.18;4.38;;;;;;;;;;5077698;28;20020;-81
2021/10/02 03:16:26;;;;;;;9.23;4.03;;;;;;;;;;5082579;28;20034;-81
2021/10/02 03:18:57;;;;;;;7.63;4.47;;;;;;;;;;5075080;28;20103;-81
2021/10/02 03:21:23;;;;;;;9.23;4.28;;;;;;;;;;5075124;28;20374;-81
2021/10/02 03:23:49;;;;;;;8.70;4.55;;;;;;;;;;5075446;28;20102;-81
2021/10/02 03:26:15;;;;;;;8.55;4.18;;;;;;;;;;5074885;28;20111;-81
2021/10/02 03:28:41;;;;;;;9.15;4.35;;;;;;;;;;5075035;28;20111;-81
2021/10/02 03:31:07;;;;;;;9.73;4.25;;;;;;;;;;5074858;28;20024;-81
2021/10/02 03:33:32;;;;;;;9.15;3.85;;;;;;;;;;5074976;28;20015;-81
2021/10/02 03:35:58;;;;;;;9.48;4.18;;;;;;;;;;5075204;28;20021;-81
2021/10/02 03:38:23;;;;;;;8.38;4.57;;;;;;;;;;5075066;28;20475;-80
2021/10/02 03:40:49;;;;;;;6.68;3.83;;;;;;;;;;5075216;28;20395;-81
2021/10/02 03:43:14;;;;;;;8.07;4.20;;;;;;;;;;5074760;28;20019;-81
2021/10/02 03:45:39;;;;;;;5.95;3.75;;;;;;;;;;5075155;28;20387;-81
2021/10/02 03:48:05;;;;;;;7.88;4.05;;;;;;;;;;5074522;28;20020;-81
2021/10/02 03:50:30;;;;;;;7.95;4.15;;;;;;;;;;5074916;28;20012;-81
2021/10/02 03:52:56;;;;;;;11.82;4.15;;;;;;;;;;5092756;28;20019;-82
2021/10/02 03:55:21;;;;;;;6.15;3.83;;;;;;;;;;5074754;28;20016;-81
2021/10/02 03:57:46;;;;;;;7.20;3.97;;;;;;;;;;5077415;28;20020;-81
2021/10/02 04:00:12;;;;;;;7.85;4.10;;;;;;;;;;5078587;28;20020;-81
2021/10/02 04:02:37;;;;;;;10.95;4.20;;;;;;;;;;5083698;28;20030;-81
2021/10/02 04:05:03;;;;;;;9.95;4.97;;;;;;;;;;5074878;28;20020;-81
2021/10/02 04:07:28;;;;;;;19.25;5.35;;;;;;;;;;5074911;28;20374;-81
2021/10/02 04:09:57;;;;;;;9.73;4.53;;;;;;;;;;5074922;28;20061;-81
2021/10/02 04:12:22;;;;;;;5.72;3.78;;;;;;;;;;5092723;28;20062;-81
2021/10/02 04:14:48;;;;;;;6.57;3.90;;;;;;;;;;5081538;28;20019;-81
2021/10/02 04:17:14;;;;;;;10.15;4.10;;;;;;;;;;5100411;28;20141;-81
2021/10/02 04:19:39;;;;;;;5.63;3.67;;;;;;;;;;5074473;28;20058;-82
2021/10/02 04:22:05;;;;;;;6.25;3.80;;;;;;;;;;5074698;28;20031;-81
2021/10/02 04:24:30;;;;;;;11.02;3.92;;;;;;;;;;5074294;28;20094;-81
2021/10/02 04:26:58;;;;;;;9.45;4.47;;;;;;;;;;5074610;28;20496;-81
2021/10/02 04:29:24;;;;;;;8.95;3.72;;;;;;;;;;5092513;28;20031;-81
2021/10/02 04:31:49;;;;;;;8.63;3.67;;;;;;;;;;5076392;28;20729;-81
2021/10/02 04:34:14;;;;;;;7.93;4.38;;;;;;;;;;5078338;28;20467;-81
2021/10/02 04:36:40;;;;;;;9.23;4.35;;;;;;;;;;5088159;28;20035;-81
2021/10/02 04:39:05;;;;;;;11.50;5.47;;;;;;;;;;5096495;28;20016;-81
2021/10/02 04:41:30;;;;;;;9.73;4.82;;;;;;;;;;5079920;28;20019;-81
2021/10/02 04:43:55;;;;;;;6.65;3.90;;;;;;;;;;5090393;28;20106;-81
2021/10/02 04:46:20;;;;;;;6.05;4.10;;;;;;;;;;5064269;28;20107;-81
2021/10/02 04:48:47;;;;;;;6.63;4.00;;;;;;;;;;5078003;28;20432;-81
2021/10/02 04:51:12;;;;;;;7.97;4.07;;;;;;;;;;5078329;28;20024;-81
2021/10/02 04:53:38;;;;;;;8.52;3.90;;;;;;;;;;5077491;28;20097;-81
2021/10/02 04:56:05;;;;;;;6.10;4.07;;;;;;;;;;5078514;28;20020;-81
2021/10/02 04:58:31;;;;;;;7.20;4.32;;;;;;;;;;5077856;28;20024;-81
2021/10/02 05:00:56;;;;;;;13.18;5.28;;;;;;;;;;5082202;28;20483;-81
2021/10/02 05:03:21;;;;;;;14.82;5.60;;;;;;;;;;5083711;28;20480;-81
2021/10/02 05:05:47;;;;;;;7.40;4.50;;;;;;;;;;5078307;28;20024;-80
2021/10/02 05:08:12;;;;;;;13.52;5.35;;;;;;;;;;5085806;28;20016;-81
2021/10/02 05:10:38;;;;;;;13.55;5.65;;;;;;;;;;5081160;28;20048;-81
2021/10/02 05:13:04;;;;;;;13.38;5.40;;;;;;;;;;5077404;28;20447;-81
2021/10/02 05:15:29;;;;;;;10.43;4.45;;;;;;;;;;5077334;28;20099;-81
2021/10/02 05:17:54;;;;;;;11.20;4.60;;;;;;;;;;5077269;28;20012;-81
2021/10/02 05:20:20;;;;;;;8.70;4.75;;;;;;;;;;5077665;28;20024;-81
2021/10/02 05:22:45;;;;;;;9.82;4.95;;;;;;;;;;5095589;28;20028;-81
2021/10/02 05:25:10;;;;;;;7.15;4.25;;;;;;;;;;5077575;28;20448;-81
2021/10/02 05:27:35;;;;;;;7.65;4.32;;;;;;;;;;5095551;28;20476;-81
2021/10/02 05:30:01;;;;;;;8.05;4.45;;;;;;;;;;5095205;28;20032;-81
2021/10/02 05:32:26;;;;;;;9.23;4.50;;;;;;;;;;5077303;28;20024;-81
2021/10/02 05:34:51;;;;;;;10.43;5.22;;;;;;;;;;5078221;28;20432;-81
2021/10/02 05:37:16;;;;;;;10.40;4.18;;;;;;;;;;5077532;28;20448;-81
2021/10/02 05:39:42;;;;;;;9.13;4.82;;;;;;;;;;5076960;28;20020;-81
2021/10/02 05:42:07;;;;;;;11.57;4.63;;;;;;;;;;5074588;28;20487;-81
2021/10/02 05:44:33;;;;;;;8.18;4.45;;;;;;;;;;5070105;28;20027;-81
2021/10/02 05:46:58;;;;;;;10.57;4.60;;;;;;;;;;5072746;28;20036;-81
2021/10/02 05:49:23;;;;;;;5.78;3.63;;;;;;;;;;5076679;28;20439;-80
2021/10/02 05:51:49;;;;;;;6.90;3.75;;;;;;;;;;5076687;28;20713;-81
2021/10/02 05:54:14;;;;;;;8.15;4.22;;;;;;;;;;5076671;28;20111;-81
2021/10/02 05:56:39;;;;;;;13.95;5.30;;;;;;;;;;5085460;28;20022;-80
2021/10/02 05:59:04;;;;;;;8.00;4.15;;;;;;;;;;5074966;28;20514;-80
2021/10/02 06:01:30;;;;;;;8.50;4.47;;;;;;;;;;5083153;28;20437;-81
2021/10/02 06:03:55;;;;;;;9.82;5.63;;;;;;;;;;5091401;28;20404;-81
2021/10/02 06:06:20;;;;;;;10.25;5.20;;;;;;;;;;5094830;28;20077;-81
2021/10/02 06:08:46;;;;;;;18.23;5.47;;;;;;;;;;5078911;28;20089;-81
2021/10/02 06:11:11;;;;;;;9.10;4.32;;;;;;;;;;5076283;28;20012;-81
2021/10/02 06:13:36;;;;;;;12.48;4.57;;;;;;;;;;5076018;28;20027;-81
2021/10/02 06:16:03;;;;;;;8.77;4.82;;;;;;;;;;5077325;28;20049;-81
2021/10/02 06:18:28;;;;;;;9.85;5.28;;;;;;;;;;5093475;28;20119;-81
2021/10/02 06:20:54;;;;;;;11.18;5.07;;;;;;;;;;5082838;28;20107;-81
2021/10/02 06:23:19;;;;;;;10.15;5.40;;;;;;;;;;5070786;28;20024;-81
2021/10/02 06:25:45;;;;;;;12.27;5.78;;;;;;;;;;5080482;28;20047;-81
2021/10/02 06:28:10;;;;;;;8.63;4.80;;;;;;;;;;5094302;28;20375;-80
2021/10/02 06:30:35;;;;;;;9.52;5.70;;;;;;;;;;5084941;28;20390;-81
2021/10/02 06:33:01;;;;;;;13.00;5.70;;;;;;;;;;5071637;28;20028;-80
2021/10/02 06:35:26;;;;;;;13.52;5.57;;;;;;;;;;5084959;28;20027;-81
2021/10/02 06:37:51;;;;;;;8.43;5.15;;;;;;;;;;5096044;28;20107;-81
2021/10/02 06:40:16;;;;;;;15.13;5.45;;;;;;;;;;5073972;28;20050;-81
2021/10/02 06:42:42;;;;;;;14.32;6.28;;;;;;;;;;5073267;28;20027;-81
2021/10/02 06:45:07;;;;;;;11.27;5.65;;;;;;;;;;5073907;28;20036;-81
2021/10/02 06:47:33;;;;;;;18.67;5.60;;;;;;;;;;5075715;28;20432;-81
2021/10/02 06:49:58;;;;;;;13.57;5.95;;;;;;;;;;5094759;27;20036;-81
2021/10/02 06:52:27;;;;;;;12.13;5.75;;;;;;;;;;5071410;28;20090;-81
2021/10/02 06:54:53;;;;;;;11.38;6.03;;;;;;;;;;5054570;28;20115;-81
2021/10/02 06:57:18;;;;;;;11.85;4.88;;;;;;;;;;5071447;28;20040;-81
2021/10/02 06:59:44;;;;;;;11.10;5.22;;;;;;;;;;5085210;28;20020;-81
2021/10/02 07:02:09;;;;;;;9.95;4.97;;;;;;;;;;5094431;27;20033;-81
2021/10/02 07:04:34;;;;;;;16.92;5.88;;;;;;;;;;5068877;28;20078;-81
2021/10/02 07:06:59;;;;;;;11.25;4.75;;;;;;;;;;5082006;28;20402;-81
2021/10/02 07:09:24;;;;;;;10.05;4.57;;;;;;;;;;5077636;28;20078;-81
2021/10/02 07:11:50;;;;;;;9.95;5.05;;;;;;;;;;5075279;28;20089;-82
2021/10/02 07:14:15;;;;;;;16.40;5.75;;;;;;;;;;5074547;28;20021;-82
2021/10/02 07:16:40;;;;;;;8.27;4.70;;;;;;;;;;5094484;28;20020;-82
2021/10/02 07:19:06;;;;;;;10.80;4.22;;;;;;;;;;5075475;28;20024;-81
2021/10/02 07:21:31;;;;;;;10.98;5.40;;;;;;;;;;5075176;28;20050;-83
2021/10/02 07:23:56;;;;;;;12.68;4.68;;;;;;;;;;5076797;28;20746;-84
2021/10/02 07:26:21;;;;;;;8.98;4.43;;;;;;;;;;5074883;28;20051;-83
2021/10/02 07:28:47;;;;;;;7.97;4.65;;;;;;;;;;5075101;28;20111;-83
2021/10/02 07:31:12;;;;;;;9.80;4.70;;;;;;;;;;5075634;28;20422;-83
2021/10/02 07:33:37;;;;;;;11.65;4.78;;;;;;;;;;5074796;28;20023;-83
2021/10/02 07:36:03;;;;;;;10.52;5.07;;;;;;;;;;5076229;28;20043;-83
2021/10/02 07:38:28;;;;;;;9.25;3.50;;;;;;;;;;5092254;28;20511;-83
2021/10/02 07:40:55;;;;;;;7.22;4.68;;;;;;;;;;5097669;28;20047;-83
2021/10/02 07:43:21;;;;;;;10.40;4.20;;;;;;;;;;5074611;28;20471;-83
2021/10/02 07:45:48;;;;;;;10.75;4.55;;;;;;;;;;5073746;28;20368;-82
2021/10/02 07:48:18;;;;;;;10.32;4.20;;;;;;;;;;5092891;28;20364;-83
2021/10/02 07:50:43;;;;;;;8.60;4.35;;;;;;;;;;5080298;28;20471;-83
2021/10/02 07:53:09;;;;;;;9.23;4.25;;;;;;;;;;5073689;28;20031;-83
2021/10/02 07:55:34;;;;;;;7.05;3.50;;;;;;;;;;5074453;28;20031;-83
2021/10/02 07:58:00;;;;;;;9.48;4.63;;;;;;;;;;5084596;28;20020;-83
2021/10/02 08:00:25;;;;;;;10.63;4.18;;;;;;;;;;5076539;28;20031;-83
2021/10/02 08:02:55;;;;;;;7.38;3.58;;;;;;;;;;5074751;28;20016;-83
2021/10/02 08:05:21;;;;;;;5.00;2.58;;;;;;;;;;5074716;28;20471;-83
2021/10/02 08:07:47;;;;;;;6.20;2.75;;;;;;;;;;5078187;28;20073;-83
2021/10/02 08:10:13;;;;;;;5.30;2.47;;;;;;;;;;5096452;28;20020;-83
2021/10/02 08:12:39;;;;;;;11.55;3.60;;;;;;;;;;5097037;28;20012;-83
2021/10/02 08:15:05;;;;;;;7.10;3.45;;;;;;;;;;5078677;28;20036;-83
2021/10/02 08:17:31;;;;;;;6.13;2.83;;;;;;;;;;5096687;28;20016;-83
2021/10/02 08:20:00;;;;;;;9.52;3.15;;;;;;;;;;5078786;28;20016;-82
2021/10/02 08:22:25;;;;;;;9.10;2.83;;;;;;;;;;5095980;28;20020;-82
2021/10/02 08:24:51;;;;;;;5.65;2.60;;;;;;;;;;5081490;28;20016;-82
2021/10/02 08:27:17;;;;;;;5.45;2.83;;;;;;;;;;5077668;28;20043;-82
2021/10/02 08:29:43;;;;;;;5.68;2.22;;;;;;;;;;5080619;28;20047;-81
2021/10/02 08:32:08;;;;;;;6.63;2.80;;;;;;;;;;5097129;28;20113;-82
2021/10/02 08:34:34;;;;;;;8.23;3.00;;;;;;;;;;5096390;28;20016;-82
2021/10/02 08:36:59;;;;;;;7.85;3.10;;;;;;;;;;5078494;28;20023;-82
2021/10/02 08:39:24;;;;;;;6.00;2.20;;;;;;;;;;5096670;28;20111;-82
2021/10/02 08:41:50;;;;;;;4.40;2.53;;;;;;;;;;5078122;28;20107;-82
2021/10/02 08:44:17;;;;;;;5.40;2.25;;;;;;;;;;5078210;28;20016;-82
2021/10/02 08:46:44;;;;;;;4.93;2.15;;;;;;;;;;5096022;28;20055;-82
2021/10/02 08:49:30;;;;;;;3.08;1.85;;;;;;;;;;5078295;28;20118;-82
2021/10/02 08:51:55;;;;;;;4.80;2.50;;;;;;;;;;5101218;28;20364;-82
2021/10/02 08:54:21;;;;;;;6.57;2.85;;;;;;;;;;5077954;28;20020;-82
2021/10/02 08:56:48;;;;;;;2.92;1.70;;;;;;;;;;5096363;28;20459;-82
2021/10/02 08:59:14;;;;;;;6.05;1.52;;;;;;;;;;5078014;28;20020;-82
2021/10/02 09:01:40;;;;;;;4.32;2.35;;;;;;;;;;5078116;28;20027;-82
2021/10/02 09:04:05;;;;;;;3.28;2.17;;;;;;;;;;5077947;28;20471;-82
2021/10/02 09:06:32;;;;;;;4.90;2.35;;;;;;;;;;5083643;28;20028;-82
2021/10/02 09:08:58;;;;;;;4.88;2.30;;;;;;;;;;5095589;28;20088;-82
2021/10/02 09:11:24;;;;;;;6.05;2.38;;;;;;;;;;5077897;28;20107;-82
2021/10/02 09:13:49;;;;;;;5.38;2.08;;;;;;;;;;5095228;28;20455;-81
2021/10/02 09:16:14;;;;;;;3.15;1.77;;;;;;;;;;5093995;28;20032;-82
2021/10/02 09:18:40;;;;;;;6.85;2.22;;;;;;;;;;5075871;28;20038;-82
2021/10/02 09:21:06;;;;;;;7.15;1.95;;;;;;;;;;5076781;28;20027;-82
2021/10/02 09:23:39;;;;;;;4.15;1.45;;;;;;;;;;5076691;28;20437;-83
2021/10/02 09:26:05;;;;;;;;;;;;;;;;;;5094447;28;20036;-82
2021/10/02 09:28:38;;;;;;;2.25;1.20;;;;;;;;;;5110489;28;19908;-82
2021/10/02 09:31:04;;;;;;;2.83;1.27;;;;;;;;;;5076581;28;20023;-82
2021/10/02 09:33:29;;;;;;;3.05;1.45;;;;;;;;;;5077015;28;20027;-82
2021/10/02 09:35:55;;;;;;;4.55;1.48;;;;;;;;;;5077311;28;20535;-82
2021/10/02 09:38:21;;;;;;;1.58;0.80;;;;;;;;;;5077063;28;20073;-82
2021/10/02 09:40:59;;;;;;;3.78;1.02;;;;;;;;;;5078426;28;20024;-82
2021/10/02 09:43:25;;;;;;;7.90;1.67;;;;;;;;;;5077680;28;20020;-82
2021/10/02 09:45:51;;;;;;;5.57;1.60;;;;;;;;;;5076375;28;20446;-82
2021/10/02 09:48:29;;;;;;;4.25;1.08;;;;;;;;;;5075223;28;20020;-82
2021/10/02 09:51:01;;;;;;;2.05;1.08;;;;;;;;;;5094199;28;20349;-82
2021/10/02 09:53:26;;;;;;;1.60;0.75;;;;;;;;;;5093565;28;20032;-82
2021/10/02 09:55:52;;;;;;;3.55;1.30;;;;;;;;;;5076324;28;20395;-83
2021/10/02 09:58:32;;;;;;;3.80;1.05;;;;;;;;;;5075963;28;20383;-82
2021/10/02 10:00:58;;;;;;;2.83;0.98;;;;;;;;;;5093845;28;20027;-82
2021/10/02 10:03:24;;;;;;;2.38;1.27;;;;;;;;;;5076382;28;20148;-82
2021/10/02 10:05:50;;;;;;;1.17;0.90;;;;;;;;;;5076757;28;20038;-82
2021/10/02 10:08:22;;;;;;;1.17;0.52;;;;;;;;;;5093705;28;20113;-82
2021/10/02 10:10:47;;;;;;;1.83;0.90;;;;;;;;;;5077079;28;20020;-83
2021/10/02 10:13:14;;;;;;;4.70;1.40;;;;;;;;;;5075413;28;20020;-83
2021/10/02 10:15:42;;;;;;;4.10;1.45;;;;;;;;;;5074200;28;20012;-85
2021/10/02 10:18:12;;;;;;;2.17;1.02;;;;;;;;;;5076019;28;20451;-83
2021/10/02 10:20:37;;;;;;;1.95;0.63;;;;;;;;;;5076162;28;20032;-83
2021/10/02 10:23:02;;;;;;;1.05;0.80;;;;;;;;;;5074660;28;20020;-82
2021/10/02 10:25:28;;;;;;;5.47;0.50;;;;;;;;;;5075709;28;20069;-83
2021/10/02 10:27:57;;;;;;;1.95;1.13;;;;;;;;;;5100683;28;20019;-82
2021/10/02 10:30:23;;;;;;;2.40;1.05;;;;;;;;;;5075930;28;20378;-83
2021/10/02 10:32:56;;;;;;;5.38;1.88;;;;;;;;;;5093889;28;20020;-83
2021/10/02 10:35:22;;;;;;;4.80;1.20;;;;;;;;;;5075940;28;20054;-82
2021/10/02 10:37:47;;;;;;;3.20;0.98;;;;;;;;;;5077527;28;20049;-83
2021/10/02 10:40:12;;;;;;;2.67;1.25;;;;;;;;;;5075333;28;20105;-83
2021/10/02 10:42:37;;;;;;;3.22;1.10;;;;;;;;;;5075107;28;20069;-82
2021/10/02 10:45:03;;;;;;;1.95;1.02;;;;;;;;;;5093619;28;20023;-82
2021/10/02 10:47:31;;;;;;;3.33;1.13;;;;;;;;;;5092917;28;20153;-82
2021/10/02 10:49:56;;;;;;;2.22;0.98;;;;;;;;;;5092101;28;20024;-83
2021/10/02 10:52:22;;;;;;;2.40;0.77;;;;;;;;;;5075247;28;20027;-83
2021/10/02 10:54:51;;;;;;;4.05;1.20;;;;;;;;;;5081255;28;20482;-83
2021/10/02 10:57:33;;;;;;;8.23;1.17;;;;;;;;;;5061656;28;20012;-82
2021/10/02 10:59:58;;;;;;;2.30;1.20;;;;;;;;;;5093292;28;20029;-82
2021/10/02 11:02:42;;;;;;;3.83;1.23;;;;;;;;;;5075436;28;20024;-82
2021/10/02 11:05:27;;;;;;;3.53;1.27;;;;;;;;;;5109124;27;20035;-82
2021/10/02 11:07:52;;;;;;;3.75;1.20;;;;;;;;;;5092904;28;20107;-83
2021/10/02 11:10:36;;;;;;;1.13;0.70;;;;;;;;;;5092527;28;20110;-83
2021/10/02 11:13:01;;;;;;;1.08;0.65;;;;;;;;;;5074746;28;20107;-83
2021/10/02 11:15:26;;;;;;;1.90;1.00;;;;;;;;;;5074689;28;20465;-83
2021/10/02 11:17:52;;;;;;;1.25;0.40;;;;;;;;;;5075615;28;20061;-83
2021/10/02 11:20:17;;;;;;;2.22;1.25;;;;;;;;;;5074974;28;20035;-83
2021/10/02 11:23:13;;;;;;;0.98;0.55;;;;;;;;;;5078228;28;20062;-83
2021/10/02 11:25:39;;;;;;;2.15;1.00;;;;;;;;;;5065562;28;20097;-83
2021/10/02 11:28:22;;;;;;;7.35;1.30;;;;;;;;;;5094899;28;20466;-82
2021/10/02 11:30:49;;;;;;;3.20;1.00;;;;;;;;;;5079262;28;20069;-83
2021/10/02 11:33:34;;;;;;;0.03;0.03;;;;;;;;;;5076495;28;20068;-82
2021/10/02 11:36:00;;;;;;;2.85;1.05;;;;;;;;;;5077610;28;20031;-82
2021/10/02 11:38:34;;;;;;;1.63;0.93;;;;;;;;;;5074285;28;20019;-82
2021/10/02 11:41:00;;;;;;;1.00;0.60;;;;;;;;;;5081934;28;20048;-82
2021/10/02 11:43:26;;;;;;;3.70;1.20;;;;;;;;;;5074219;28;20016;-83
2021/10/02 11:45:56;;;;;;;1.95;0.63;;;;;;;;;;5092046;28;20049;-83
2021/10/02 11:48:31;;;;;;;1.55;0.73;;;;;;;;;;5092310;28;20036;-83
2021/10/02 11:51:35;;;;;;;5.93;1.10;;;;;;;;;;5093052;28;20413;-82
2021/10/02 11:54:12;;;;;;;1.77;0.70;;;;;;;;;;5034287;28;20516;-83
2021/10/02 11:56:38;;;;;;;3.40;1.08;;;;;;;;;;5013241;28;20029;-83
2021/10/02 11:59:04;;;;;;;2.05;1.20;;;;;;;;;;5047462;28;20624;-83
2021/10/02 12:01:31;;;;;;;5.50;1.10;;;;;;;;;;5074012;28;20020;-83
2021/10/02 12:04:08;;;;;;;1.55;1.05;;;;;;;;;;5073893;28;20031;-83
2021/10/02 12:06:34;;;;;;;2.28;0.85;;;;;;;;;;5073876;28;20020;-83
2021/10/02 12:09:00;;;;;;;1.85;0.80;;;;;;;;;;5073844;28;20024;-82
2021/10/02 12:11:26;;;;;;;1.30;0.80;;;;;;;;;;5096955;28;20576;-83
2021/10/02 12:13:53;;;;;;;1.30;0.90;;;;;;;;;;5091608;28;20016;-82
2021/10/02 12:16:22;;;;;;;2.75;0.57;;;;;;;;;;5091761;28;20383;-82
2021/10/02 12:19:08;;;;;;;3.42;1.40;;;;;;;;;;5074141;28;20051;-83
2021/10/02 12:21:44;;;;;;;3.15;0.90;;;;;;;;;;5092405;28;20020;-83
2021/10/02 12:24:09;;;;;;;2.53;0.80;;;;;;;;;;5074558;28;20016;-83
2021/10/02 12:26:40;;;;;;;2.17;0.80;;;;;;;;;;5074263;28;20022;-83
2021/10/02 12:29:07;;;;;;;0.70;0.40;;;;;;;;;;5073444;28;20027;-83
2021/10/02 12:31:41;;;;;;;2.40;0.50;;;;;;;;;;5092335;28;20067;-83
2021/10/02 12:34:14;;;;;;;1.40;0.77;;;;;;;;;;5076947;28;20031;-86
2021/10/02 12:36:41;;;;;;;3.65;0.77;;;;;;;;;;5074258;28;20016;-86
2021/10/02 12:39:06;;;;;;;1.65;0.50;;;;;;;;;;5080600;28;20435;-87
2021/10/02 12:41:39;;;;;;;1.05;0.57;;;;;;;;;;5092173;28;20105;-87
2021/10/02 12:44:04;;;;;;;2.25;0.68;;;;;;;;;;5083514;28;20111;-87
2021/10/02 12:46:30;;;;;;;0.80;0.35;;;;;;;;;;5073907;28;20108;-86
2021/10/02 12:48:55;;;;;;;0.50;0.47;;;;;;;;;;5074288;28;20043;-86
2021/10/02 12:51:20;;;;;;;6.43;0.60;;;;;;;;;;5074467;28;20042;-86
2021/10/02 12:53:45;;;;;;;1.20;0.40;;;;;;;;;;5077126;28;20383;-87
2021/10/02 12:56:17;;;;;;;1.42;0.70;;;;;;;;;;5077880;28;20021;-86
2021/10/02 12:58:42;;;;;;;1.88;0.63;;;;;;;;;;5078099;28;20016;-86
2021/10/02 13:01:08;;;;;;;3.13;0.73;;;;;;;;;;5077935;28;20365;-86
2021/10/02 13:03:37;;;;;;;1.17;0.50;;;;;;;;;;5100804;28;20434;-86
2021/10/02 13:06:02;;;;;;;2.38;0.47;;;;;;;;;;5077612;28;20031;-87
2021/10/02 13:08:28;;;;;;;0.82;0.47;;;;;;;;;;5077623;28;20012;-86
2021/10/02 13:10:53;;;;;;;2.00;0.50;;;;;;;;;;5077561;28;20016;-87
2021/10/02 13:13:19;;;;;;;1.77;0.70;;;;;;;;;;5077479;28;20048;-87
2021/10/02 13:15:49;;;;;;;4.00;0.55;;;;;;;;;;5076887;28;20042;-86
2021/10/02 13:18:16;;;;;;;9.90;0.90;;;;;;;;;;5101239;28;20015;-87
2021/10/02 13:20:41;;;;;;;3.22;0.50;;;;;;;;;;5071988;28;20016;-87
2021/10/02 13:23:13;;;;;;;11.00;0.45;;;;;;;;;;5077388;28;20050;-87
2021/10/02 13:25:40;;;;;;;1.75;0.63;;;;;;;;;;5077409;28;20383;-86
2021/10/02 13:28:06;;;;;;;3.53;0.40;;;;;;;;;;5077311;28;20044;-87
2021/10/02 13:30:32;;;;;;;2.90;0.80;;;;;;;;;;5077506;28;20518;-85
2021/10/02 13:33:16;;;;;;;3.58;0.70;;;;;;;;;;5077088;28;20024;-85
2021/10/02 13:35:58;;;;;;;4.57;0.60;;;;;;;;;;5095606;28;20041;-85
2021/10/02 13:38:34;;;;;;;1.85;0.43;;;;;;;;;;5095290;28;20016;-85
2021/10/02 13:41:01;;;;;;;3.85;0.70;;;;;;;;;;5076330;28;20032;-86
2021/10/02 13:43:27;;;;;;;4.65;0.85;;;;;;;;;;5076729;28;20017;-86
2021/10/02 13:45:52;;;;;;;2.55;0.32;;;;;;;;;;5076440;28;20012;-86
2021/10/02 13:48:23;;;;;;;2.33;0.20;;;;;;;;;;5076530;28;20024;-86
2021/10/02 13:50:49;;;;;;;2.65;0.82;;;;;;;;;;5096360;28;20020;-87
2021/10/02 13:53:16;;;;;;;8.50;0.98;;;;;;;;;;5076919;28;20039;-87
2021/10/02 13:55:41;;;;;;;1.65;0.32;;;;;;;;;;5076784;28;20016;-87
2021/10/02 13:58:06;;;;;;;0.60;0.30;;;;;;;;;;5076807;28;20023;-86
2021/10/02 14:00:32;;;;;;;4.93;0.68;;;;;;;;;;5076899;28;20021;-87
2021/10/02 14:02:57;;;;;;;8.15;0.60;;;;;;;;;;5076912;28;20024;-87
2021/10/02 14:05:23;;;;;;;2.60;0.80;;;;;;;;;;5076713;28;20020;-86
2021/10/02 14:07:49;;;;;;;3.70;0.60;;;;;;;;;;5074632;28;20027;-86
2021/10/02 14:10:14;;;;;;;2.08;0.85;;;;;;;;;;5094550;28;20024;-86
2021/10/02 14:12:40;;;;;;;1.38;0.60;;;;;;;;;;5080161;28;20042;-86
2021/10/02 14:15:06;;;;;;;3.05;0.60;;;;;;;;;;5086353;28;20034;-86
2021/10/02 14:17:32;;;;;;;5.57;0.73;;;;;;;;;;5084944;28;20075;-86
2021/10/02 14:19:57;;;;;;;4.95;0.63;;;;;;;;;;5076245;28;20032;-86
2021/10/02 14:22:22;;;;;;;4.30;0.50;;;;;;;;;;5076445;28;20067;-86
2021/10/02 14:24:47;;;;;;;3.42;0.70;;;;;;;;;;5075738;28;20016;-86
2021/10/02 14:27:13;;;;;;;1.45;0.50;;;;;;;;;;5093890;28;20027;-86
2021/10/02 14:29:38;;;;;;;1.55;0.55;;;;;;;;;;5075623;28;20016;-86
2021/10/02 14:32:03;;;;;;;2.40;0.68;;;;;;;;;;5076386;28;20136;-85
2021/10/02 14:34:29;;;;;;;1.52;0.40;;;;;;;;;;5085633;28;20442;-86
2021/10/02 14:36:54;;;;;;;1.73;0.57;;;;;;;;;;5100559;28;20016;-86
2021/10/02 14:39:19;;;;;;;0.32;0.10;;;;;;;;;;5075324;28;20032;-86
2021/10/02 14:41:47;;;;;;;0.95;0.52;;;;;;;;;;5088661;28;20103;-86
2021/10/02 14:44:12;;;;;;;1.80;0.65;;;;;;;;;;5076002;28;20073;-86
2021/10/02 14:46:37;;;;;;;1.90;0.55;;;;;;;;;;5075818;28;20035;-86
2021/10/02 14:49:02;;;;;;;3.60;0.70;;;;;;;;;;5075863;28;20055;-86
2021/10/02 14:51:28;;;;;;;4.80;0.77;;;;;;;;;;5094179;28;20046;-85
2021/10/02 14:53:54;;;;;;;1.42;0.60;;;;;;;;;;5075700;28;20428;-86
2021/10/02 14:56:20;;;;;;;5.22;0.50;;;;;;;;;;5075863;28;20020;-86
2021/10/02 14:58:46;;;;;;;2.10;0.63;;;;;;;;;;5075669;28;20103;-86
2021/10/02 15:01:14;;;;;;;2.25;0.80;;;;;;;;;;5075882;28;20103;-86
2021/10/02 15:03:42;;;;;;;1.15;0.50;;;;;;;;;;5076100;28;20048;-85
2021/10/02 15:06:07;;;;;;;0.95;0.55;;;;;;;;;;5093940;28;20023;-86
2021/10/02 15:08:32;;;;;;;5.75;0.95;;;;;;;;;;5075036;28;20478;-85
2021/10/02 15:10:58;;;;;;;1.17;0.50;;;;;;;;;;5075334;28;20020;-86
2021/10/02 15:13:24;;;;;;;2.72;0.60;;;;;;;;;;5075112;28;20438;-86
2021/10/02 15:15:55;;;;;;;9.45;1.30;;;;;;;;;;5074726;28;20023;-85
2021/10/02 15:18:20;;;;;;;3.75;0.90;;;;;;;;;;5093585;28;20020;-86
2021/10/02 15:20:48;;;;;;;1.75;0.70;;;;;;;;;;5075549;28;20032;-86
2021/10/02 15:23:16;;;;;;;2.08;0.47;;;;;;;;;;5075341;28;20047;-86
2021/10/02 15:25:42;;;;;;;2.40;0.68;;;;;;;;;;5075265;28;20016;-86
2021/10/02 15:28:13;;;;;;;1.23;0.82;;;;;;;;;;5074749;28;20020;-86
2021/10/02 15:30:38;;;;;;;14.95;1.23;;;;;;;;;;5100857;28;20027;-85
2021/10/02 15:33:06;;;;;;;2.78;0.40;;;;;;;;;;5078595;28;20020;-85